Time,TemperatureF,DewpointF,PressureIn,WindDirection,WindDirectionDegrees,WindSpeedMPH,WindSpeedGustMPH,Humidity,HourlyPrecipIn,Conditions,Clouds,dailyrainin,SoftwareType,DateUTC
2013-05-30 00:01:00,50.2,48.5,29.86,WNW,288,0.0,0.0,94,0.00,,OVC060,0.11,VWS V14.01,2013-05-30 07:01:00,
2013-05-30 00:06:00,50.2,48.5,29.87,WNW,288,0.0,0.0,94,0.00,,OVC036,0.00,VWS V14.01,2013-05-30 07:06:00,
2013-05-30 00:11:00,50.4,48.7,29.87,WNW,288,0.0,0.0,94,0.01,,OVC036,0.01,VWS V14.01,2013-05-30 07:11:00,
2013-05-30 00:16:00,50.2,48.5,29.87,WNW,288,0.0,0.0,94,0.01,,OVC036,0.01,VWS V14.01,2013-05-30 07:16:00,
2013-05-30 00:21:00,50.2,48.5,29.88,WNW,288,0.0,0.0,94,0.01,,OVC036,0.01,VWS V14.01,2013-05-30 07:21:00,
2013-05-30 00:26:00,50.2,48.5,29.88,WNW,288,0.0,0.0,94,0.01,,OVC036,0.01,VWS V14.01,2013-05-30 07:26:00,
2013-05-30 00:31:00,50.2,48.5,29.88,WNW,288,0.0,0.0,94,0.01,,OVC036,0.01,VWS V14.01,2013-05-30 07:31:00,
2013-05-30 00:36:00,50.2,48.3,29.88,WNW,288,0.0,0.0,93,0.01,,OVC036,0.01,VWS V14.01,2013-05-30 07:36:00,
2013-05-30 00:41:00,50.1,48.2,29.88,WNW,288,0.0,0.0,93,0.01,,OVC036,0.01,VWS V14.01,2013-05-30 07:41:00,
2013-05-30 00:46:00,50.1,48.2,29.88,WNW,288,0.0,0.0,93,0.01,,OVC036,0.01,VWS V14.01,2013-05-30 07:46:00,
2013-05-30 00:51:00,50.1,48.2,29.88,SSW,209,0.0,0.0,93,0.01,,OVC036,0.01,VWS V14.01,2013-05-30 07:51:00,
2013-05-30 00:56:00,50.1,48.2,29.88,SSW,209,0.0,0.0,93,0.01,,OVC036,0.01,VWS V14.01,2013-05-30 07:56:00,
2013-05-30 01:01:00,50.1,47.9,29.88,SSW,209,0.0,0.0,92,0.01,,BKN070,0.01,VWS V14.01,2013-05-30 08:01:00,
2013-05-30 01:07:00,50.1,47.9,29.88,SSW,209,0.0,0.0,92,0.01,,BKN070,0.01,VWS V14.01,2013-05-30 08:07:00,
2013-05-30 01:12:00,50.1,47.9,29.88,SSW,209,0.0,0.0,92,0.00,,BKN070,0.01,VWS V14.01,2013-05-30 08:12:00,
2013-05-30 01:17:00,49.9,47.7,29.88,SSW,209,0.0,0.0,92,0.00,,BKN070,0.01,VWS V14.01,2013-05-30 08:17:00,
2013-05-30 01:22:00,49.9,47.7,29.88,SSW,209,0.0,0.0,92,0.00,,BKN070,0.01,VWS V14.01,2013-05-30 08:22:00,
2013-05-30 01:27:00,49.9,47.7,29.88,SSW,209,0.0,0.0,92,0.00,,BKN070,0.01,VWS V14.01,2013-05-30 08:27:00,
2013-05-30 01:32:00,49.9,47.7,29.88,SSW,209,0.0,0.0,92,0.00,,BKN070,0.01,VWS V14.01,2013-05-30 08:32:00,
2013-05-30 01:37:00,49.9,47.7,29.89,NNW,343,0.0,0.0,92,0.00,,BKN070,0.01,VWS V14.01,2013-05-30 08:37:00,
2013-05-30 01:42:00,49.9,47.7,29.89,NNW,328,0.0,0.0,92,0.00,,BKN070,0.01,VWS V14.01,2013-05-30 08:42:00,
2013-05-30 01:47:00,49.9,47.7,29.89,NNW,344,0.0,0.0,92,0.00,,BKN070,0.01,VWS V14.01,2013-05-30 08:47:00,
2013-05-30 01:52:00,49.8,47.6,29.89,SSW,205,0.0,0.0,92,0.00,,BKN070,0.01,VWS V14.01,2013-05-30 08:52:00,
2013-05-30 01:57:00,49.8,47.0,29.89,SSW,205,0.0,0.0,90,0.00,,BKN070,0.01,VWS V14.01,2013-05-30 08:57:00,
2013-05-30 02:02:00,49.8,47.0,29.89,SSW,205,0.0,0.0,90,0.00,,BKN080,0.01,VWS V14.01,2013-05-30 09:02:00,
2013-05-30 02:07:00,49.2,46.4,29.89,SSW,205,1.0,1.0,90,0.00,,BKN080,0.01,VWS V14.01,2013-05-30 09:07:00,
2013-05-30 02:12:00,49.0,46.2,29.89,SSE,158,0.0,0.0,90,0.00,,BKN080,0.01,VWS V14.01,2013-05-30 09:12:00,
2013-05-30 02:17:00,49.0,46.2,29.89,SSE,161,0.0,0.0,90,0.00,,BKN080,0.01,VWS V14.01,2013-05-30 09:17:00,
2013-05-30 02:22:00,49.0,46.2,29.89,SSE,167,0.0,0.0,90,0.00,,BKN080,0.01,VWS V14.01,2013-05-30 09:22:00,
2013-05-30 02:28:00,48.9,46.1,29.89,WSW,254,0.0,0.0,90,0.00,,BKN080,0.01,VWS V14.01,2013-05-30 09:28:00,
2013-05-30 02:33:00,48.7,45.9,29.90,North,349,0.0,0.0,90,0.00,,BKN080,0.01,VWS V14.01,2013-05-30 09:33:00,
2013-05-30 02:38:00,48.7,45.3,29.90,NW,305,0.0,0.0,88,0.00,,BKN080,0.01,VWS V14.01,2013-05-30 09:38:00,
2013-05-30 02:43:00,48.7,45.3,29.90,WNW,285,0.0,0.0,88,0.00,,BKN080,0.01,VWS V14.01,2013-05-30 09:43:00,
2013-05-30 02:48:00,48.4,45.0,29.90,WNW,285,0.0,0.0,88,0.00,,BKN080,0.01,VWS V14.01,2013-05-30 09:48:00,
2013-05-30 02:53:00,48.4,44.7,29.90,WNW,287,0.0,0.0,87,0.00,,BKN080,0.01,VWS V14.01,2013-05-30 09:53:00,
2013-05-30 02:58:00,48.3,44.6,29.90,WNW,287,0.0,0.0,87,0.00,,BKN080,0.01,VWS V14.01,2013-05-30 09:58:00,
2013-05-30 03:03:00,48.1,44.4,29.90,WNW,287,0.0,1.0,87,0.00,,BKN065,0.01,VWS V14.01,2013-05-30 10:03:00,
2013-05-30 03:08:00,48.0,44.3,29.90,WNW,287,0.0,0.0,87,0.00,,BKN065,0.01,VWS V14.01,2013-05-30 10:08:00,
2013-05-30 03:13:00,48.0,44.3,29.90,WNW,287,0.0,0.0,87,0.00,,BKN065,0.01,VWS V14.01,2013-05-30 10:13:00,
2013-05-30 03:18:00,47.8,44.1,29.90,WNW,287,0.0,0.0,87,0.00,,BKN065,0.01,VWS V14.01,2013-05-30 10:18:00,
2013-05-30 03:23:00,47.7,44.0,29.90,WNW,287,0.0,0.0,87,0.00,,BKN065,0.01,VWS V14.01,2013-05-30 10:23:00,
2013-05-30 03:28:00,47.5,43.8,29.90,WNW,287,0.0,0.0,87,0.00,,BKN065,0.01,VWS V14.01,2013-05-30 10:28:00,
2013-05-30 03:33:00,47.5,43.8,29.90,WNW,287,0.0,0.0,87,0.00,,BKN065,0.01,VWS V14.01,2013-05-30 10:33:00,
2013-05-30 03:39:00,47.7,44.0,29.90,WNW,287,0.0,0.0,87,0.00,,BKN065,0.01,VWS V14.01,2013-05-30 10:39:00,
2013-05-30 03:44:00,47.5,44.1,29.90,WNW,287,0.0,0.0,88,0.00,,BKN065,0.01,VWS V14.01,2013-05-30 10:44:00,
2013-05-30 03:49:00,47.5,44.1,29.91,WNW,287,0.0,0.0,88,0.00,,BKN065,0.01,VWS V14.01,2013-05-30 10:49:00,
2013-05-30 03:54:00,47.7,44.3,29.91,WNW,287,0.0,0.0,88,0.00,,BKN065,0.01,VWS V14.01,2013-05-30 10:54:00,
2013-05-30 03:59:00,47.7,44.3,29.91,WNW,287,0.0,0.0,88,0.00,,BKN065,0.01,VWS V14.01,2013-05-30 10:59:00,
2013-05-30 04:04:00,47.7,44.3,29.92,WNW,287,0.0,0.0,88,0.00,,FEW110,0.01,VWS V14.01,2013-05-30 11:04:00,
2013-05-30 04:09:00,47.5,44.1,29.92,NNW,328,0.0,1.0,88,0.00,,FEW110,0.01,VWS V14.01,2013-05-30 11:09:00,
2013-05-30 04:14:00,47.5,44.1,29.92,WNW,298,0.0,0.0,88,0.00,,FEW110,0.01,VWS V14.01,2013-05-30 11:14:00,
2013-05-30 04:19:00,47.5,44.1,29.92,WNW,298,0.0,0.0,88,0.00,,FEW110,0.01,VWS V14.01,2013-05-30 11:19:00,
2013-05-30 04:24:00,47.5,43.8,29.92,WNW,298,0.0,0.0,87,0.00,,FEW110,0.01,VWS V14.01,2013-05-30 11:24:00,
2013-05-30 04:29:00,47.1,43.4,29.92,WNW,298,0.0,0.0,87,0.00,,FEW110,0.01,VWS V14.01,2013-05-30 11:29:00,
2013-05-30 04:34:00,47.0,43.3,29.92,WNW,298,0.0,0.0,87,0.00,,FEW110,0.01,VWS V14.01,2013-05-30 11:34:00,
2013-05-30 04:39:00,47.0,43.3,29.92,WNW,298,0.0,0.0,87,0.00,,FEW110,0.01,VWS V14.01,2013-05-30 11:39:00,
2013-05-30 04:45:00,46.8,43.1,29.92,SW,227,0.0,0.0,87,0.00,,FEW110,0.01,VWS V14.01,2013-05-30 11:45:00,
2013-05-30 04:50:00,46.7,43.0,29.93,SW,227,0.0,0.0,87,0.00,,FEW110,0.01,VWS V14.01,2013-05-30 11:50:00,
2013-05-30 04:55:00,46.5,42.8,29.93,SW,227,0.0,0.0,87,0.00,,FEW110,0.01,VWS V14.01,2013-05-30 11:55:00,
2013-05-30 05:00:00,46.5,42.8,29.93,SW,229,0.0,0.0,87,0.00,,FEW110,0.01,VWS V14.01,2013-05-30 12:00:00,
2013-05-30 05:05:00,46.4,42.8,29.94,SW,230,0.0,0.0,87,0.00,,FEW013,0.01,VWS V14.01,2013-05-30 12:05:00,
2013-05-30 05:10:00,46.4,42.8,29.94,SW,230,0.0,0.0,87,0.00,,FEW013,0.01,VWS V14.01,2013-05-30 12:10:00,
2013-05-30 05:15:00,46.4,42.8,29.94,SW,230,0.0,0.0,87,0.00,,FEW013,0.01,VWS V14.01,2013-05-30 12:15:00,
2013-05-30 05:20:00,46.4,42.8,29.94,WSW,241,0.0,0.0,87,0.00,,FEW013,0.01,VWS V14.01,2013-05-30 12:20:00,
2013-05-30 05:25:00,46.2,42.5,29.94,WSW,241,0.0,0.0,87,0.00,,FEW013,0.01,VWS V14.01,2013-05-30 12:25:00,
2013-05-30 05:30:00,46.2,42.5,29.94,WSW,241,0.0,0.0,87,0.00,,FEW013,0.01,VWS V14.01,2013-05-30 12:30:00,
2013-05-30 05:35:00,46.2,42.5,29.94,WSW,241,0.0,0.0,87,0.00,,FEW013,0.01,VWS V14.01,2013-05-30 12:35:00,
2013-05-30 05:40:00,46.1,42.5,29.94,ESE,110,0.0,0.0,87,0.00,,FEW013,0.01,VWS V14.01,2013-05-30 12:40:00,
2013-05-30 05:45:00,46.1,42.2,29.94,ESE,112,0.0,0.0,86,0.00,,FEW013,0.01,VWS V14.01,2013-05-30 12:45:00,
2013-05-30 05:50:00,46.1,42.2,29.94,ESE,112,0.0,0.0,86,0.00,,FEW013,0.01,VWS V14.01,2013-05-30 12:50:00,
2013-05-30 05:56:00,46.1,42.2,29.94,WNW,285,0.0,0.0,86,0.00,,FEW013,0.01,VWS V14.01,2013-05-30 12:56:00,
2013-05-30 06:01:00,46.1,42.2,29.94,WNW,285,0.0,0.0,86,0.00,,FEW013,0.01,VWS V14.01,2013-05-30 13:01:00,
2013-05-30 06:06:00,46.2,42.2,29.94,WNW,285,0.0,0.0,86,0.00,,SCT045,0.01,VWS V14.01,2013-05-30 13:06:00,
2013-05-30 06:11:00,46.2,42.2,29.94,WNW,285,0.0,0.0,86,0.00,,SCT045,0.01,VWS V14.01,2013-05-30 13:11:00,
2013-05-30 06:16:00,46.4,42.5,29.94,WNW,285,0.0,0.0,86,0.00,,SCT045,0.01,VWS V14.01,2013-05-30 13:16:00,
2013-05-30 06:21:00,46.5,42.5,29.94,WNW,285,0.0,0.0,86,0.00,,SCT045,0.01,VWS V14.01,2013-05-30 13:21:00,
2013-05-30 06:26:00,47.1,43.1,29.94,WNW,285,0.0,0.0,86,0.00,,SCT045,0.01,VWS V14.01,2013-05-30 13:26:00,
2013-05-30 06:31:00,47.2,42.9,29.94,WNW,287,0.0,0.0,85,0.00,,SCT045,0.01,VWS V14.01,2013-05-30 13:31:00,
2013-05-30 06:36:00,47.7,43.4,29.95,WNW,282,0.0,0.0,85,0.00,,SCT045,0.01,VWS V14.01,2013-05-30 13:36:00,
2013-05-30 06:41:00,48.1,43.8,29.95,West,281,0.0,0.0,85,0.00,,SCT045,0.01,VWS V14.01,2013-05-30 13:41:00,
2013-05-30 06:46:00,48.4,44.1,29.95,West,280,0.0,0.0,85,0.00,,SCT045,0.01,VWS V14.01,2013-05-30 13:46:00,
2013-05-30 06:52:00,48.6,44.3,29.95,West,280,0.0,0.0,85,0.00,,SCT045,0.01,VWS V14.01,2013-05-30 13:52:00,
2013-05-30 06:57:00,49.0,44.7,29.95,WSW,240,0.0,0.0,85,0.00,,SCT045,0.01,VWS V14.01,2013-05-30 13:57:00,
2013-05-30 07:02:00,49.0,43.4,29.95,WSW,241,0.0,0.0,81,0.00,,SCT015,0.01,VWS V14.01,2013-05-30 14:02:00,
2013-05-30 07:07:00,48.9,43.3,29.96,ESE,103,0.0,2.0,81,0.00,,SCT015,0.01,VWS V14.01,2013-05-30 14:07:00,
2013-05-30 07:12:00,49.0,43.4,29.96,South,172,0.0,0.0,81,0.00,,SCT015,0.01,VWS V14.01,2013-05-30 14:12:00,
2013-05-30 07:17:00,49.0,43.4,29.96,East,100,0.0,0.0,81,0.00,,SCT015,0.01,VWS V14.01,2013-05-30 14:17:00,
2013-05-30 07:22:00,48.9,43.3,29.97,East,100,0.0,1.0,81,0.00,,SCT015,0.01,VWS V14.01,2013-05-30 14:22:00,
2013-05-30 07:27:00,48.9,43.0,29.97,East,100,0.0,0.0,80,0.00,,SCT015,0.01,VWS V14.01,2013-05-30 14:27:00,
2013-05-30 07:32:00,48.7,42.8,29.97,NNE,24,0.0,0.0,80,0.00,,SCT015,0.01,VWS V14.01,2013-05-30 14:32:00,
2013-05-30 07:37:00,49.0,43.1,29.97,West,272,0.0,0.0,80,0.00,,SCT015,0.01,VWS V14.01,2013-05-30 14:37:00,
2013-05-30 07:42:00,49.0,43.1,29.97,WNW,296,0.0,1.0,80,0.00,,SCT015,0.01,VWS V14.01,2013-05-30 14:42:00,
2013-05-30 07:47:00,49.3,43.4,29.98,SSW,198,0.0,0.0,80,0.00,,SCT015,0.01,VWS V14.01,2013-05-30 14:47:00,
2013-05-30 07:52:00,49.3,43.4,29.98,WNW,285,1.0,2.0,80,0.00,,SCT015,0.01,VWS V14.01,2013-05-30 14:52:00,
2013-05-30 07:57:00,49.3,43.7,29.98,SSE,167,0.0,0.0,81,0.00,,SCT015,0.01,VWS V14.01,2013-05-30 14:57:00,
2013-05-30 08:02:00,49.3,43.4,29.98,NW,318,0.0,1.0,80,0.00,,OVC017,0.01,VWS V14.01,2013-05-30 15:02:00,
2013-05-30 08:07:00,49.3,43.4,29.98,ESE,116,0.0,0.0,80,0.00,,OVC017,0.01,VWS V14.01,2013-05-30 15:07:00,
2013-05-30 08:12:00,49.3,43.4,29.98,West,280,0.0,0.0,80,0.00,,OVC017,0.01,VWS V14.01,2013-05-30 15:12:00,
2013-05-30 08:17:00,49.3,43.4,29.99,ENE,61,0.0,0.0,80,0.00,,OVC017,0.01,VWS V14.01,2013-05-30 15:17:00,
2013-05-30 08:22:00,49.3,43.4,29.99,WNW,301,0.0,2.0,80,0.00,,OVC017,0.01,VWS V14.01,2013-05-30 15:22:00,
2013-05-30 08:28:00,49.5,43.6,29.99,NW,320,0.0,0.0,80,0.00,,OVC017,0.01,VWS V14.01,2013-05-30 15:28:00,
2013-05-30 08:33:00,49.5,43.9,29.99,WSW,243,0.0,0.0,81,0.00,,OVC017,0.01,VWS V14.01,2013-05-30 15:33:00,
2013-05-30 08:38:00,49.8,44.2,29.99,WSW,250,0.0,0.0,81,0.00,,OVC017,0.01,VWS V14.01,2013-05-30 15:38:00,
2013-05-30 08:43:00,49.9,44.3,29.99,West,263,0.0,0.0,81,0.00,,OVC017,0.01,VWS V14.01,2013-05-30 15:43:00,
2013-05-30 08:48:00,50.5,44.9,29.99,WNW,282,3.0,3.0,81,0.00,,OVC017,0.01,VWS V14.01,2013-05-30 15:48:00,
2013-05-30 08:53:00,50.5,44.9,29.99,West,277,0.0,0.0,81,0.00,,OVC017,0.01,VWS V14.01,2013-05-30 15:53:00,
2013-05-30 08:58:00,51.4,45.8,29.99,WNW,285,1.0,1.0,81,0.00,,OVC017,0.01,VWS V14.01,2013-05-30 15:58:00,
2013-05-30 09:03:00,51.4,45.8,30.00,WNW,295,0.0,0.0,81,0.00,,OVC024,0.01,VWS V14.01,2013-05-30 16:03:00,
2013-05-30 09:08:00,51.4,45.8,30.00,WNW,295,0.0,0.0,81,0.00,,OVC024,0.01,VWS V14.01,2013-05-30 16:08:00,
2013-05-30 09:13:00,51.5,45.9,30.00,NNE,14,0.0,0.0,81,0.00,,OVC024,0.01,VWS V14.01,2013-05-30 16:13:00,
2013-05-30 09:18:00,51.5,45.9,30.00,NNE,14,0.0,0.0,81,0.00,,OVC024,0.01,VWS V14.01,2013-05-30 16:18:00,
2013-05-30 09:23:00,51.8,46.2,30.00,NW,305,0.0,0.0,81,0.00,,OVC024,0.01,VWS V14.01,2013-05-30 16:23:00,
2013-05-30 09:28:00,51.8,46.2,30.00,WNW,289,0.0,0.0,81,0.00,,OVC024,0.01,VWS V14.01,2013-05-30 16:28:00,
2013-05-30 09:34:00,52.0,46.4,30.00,East,99,0.0,0.0,81,0.00,,OVC024,0.01,VWS V14.01,2013-05-30 16:34:00,
2013-05-30 09:39:00,52.4,46.8,30.00,WNW,295,0.0,1.0,81,0.00,,OVC024,0.01,VWS V14.01,2013-05-30 16:39:00,
2013-05-30 09:44:00,53.0,47.3,30.00,WNW,294,0.0,0.0,81,0.00,,OVC024,0.01,VWS V14.01,2013-05-30 16:44:00,
2013-05-30 09:49:00,53.0,47.3,30.00,WNW,294,0.0,0.0,81,0.00,,OVC024,0.01,VWS V14.01,2013-05-30 16:49:00,
2013-05-30 09:54:00,53.0,47.3,30.00,WNW,294,0.0,0.0,81,0.00,,OVC024,0.01,VWS V14.01,2013-05-30 16:54:00,
2013-05-30 09:59:00,53.0,47.3,30.00,ESE,117,0.0,0.0,81,0.00,,OVC024,0.01,VWS V14.01,2013-05-30 16:59:00,
2013-05-30 10:04:00,53.0,47.3,30.00,ESE,121,0.0,0.0,81,0.00,,OVC033,0.01,VWS V14.01,2013-05-30 17:04:00,
2013-05-30 10:09:00,54.2,48.5,30.00,WNW,295,0.0,0.0,81,0.00,,OVC033,0.01,VWS V14.01,2013-05-30 17:09:00,
2013-05-30 10:14:00,54.2,48.5,30.00,West,264,0.0,0.0,81,0.00,,OVC033,0.01,VWS V14.01,2013-05-30 17:14:00,
2013-05-30 10:19:00,54.3,48.6,30.00,West,267,0.0,0.0,81,0.00,,OVC033,0.01,VWS V14.01,2013-05-30 17:19:00,
2013-05-30 10:24:00,54.6,48.9,30.00,WNW,299,1.0,2.0,81,0.00,,OVC033,0.01,VWS V14.01,2013-05-30 17:24:00,
2013-05-30 10:30:00,54.6,44.3,30.00,WNW,302,0.0,2.0,68,0.00,,OVC033,0.01,VWS V14.01,2013-05-30 17:30:00,
2013-05-30 10:35:00,54.5,44.5,30.01,WNW,288,1.0,2.0,69,0.00,,OVC033,0.01,VWS V14.01,2013-05-30 17:35:00,
2013-05-30 10:40:00,54.2,44.3,30.01,North,352,0.0,0.0,69,0.00,,OVC033,0.01,VWS V14.01,2013-05-30 17:40:00,
2013-05-30 10:45:00,54.5,44.5,30.01,WNW,299,0.0,0.0,69,0.00,,OVC033,0.01,VWS V14.01,2013-05-30 17:45:00,
2013-05-30 10:50:00,54.5,44.5,30.01,SW,230,0.0,0.0,69,0.00,,OVC033,0.01,VWS V14.01,2013-05-30 17:50:00,
2013-05-30 10:55:00,54.6,44.7,30.01,WNW,288,0.0,0.0,69,0.00,,OVC033,0.01,VWS V14.01,2013-05-30 17:55:00,
2013-05-30 11:00:00,54.6,43.5,30.01,WNW,285,1.0,1.0,66,0.00,,OVC033,0.01,VWS V14.01,2013-05-30 18:00:00,
2013-05-30 11:05:00,55.4,44.2,30.01,WNW,287,1.0,1.0,66,0.00,,BKN040,0.01,VWS V14.01,2013-05-30 18:05:00,
2013-05-30 11:10:00,55.7,44.5,30.01,WNW,287,0.0,0.0,66,0.00,,BKN040,0.01,VWS V14.01,2013-05-30 18:10:00,
2013-05-30 11:15:00,55.7,44.5,30.01,WNW,287,0.0,0.0,66,0.00,,BKN040,0.01,VWS V14.01,2013-05-30 18:15:00,
2013-05-30 11:20:00,56.4,45.2,30.01,WNW,287,0.0,0.0,66,0.00,,BKN040,0.01,VWS V14.01,2013-05-30 18:20:00,
2013-05-30 11:25:00,56.4,45.2,30.01,WNW,287,0.0,0.0,66,0.00,,BKN040,0.01,VWS V14.01,2013-05-30 18:25:00,
2013-05-30 11:31:00,56.6,45.4,30.01,WNW,287,0.0,0.0,66,0.00,,BKN040,0.01,VWS V14.01,2013-05-30 18:31:00,
2013-05-30 11:36:00,56.6,45.4,30.02,WNW,287,0.0,0.0,66,0.00,,BKN040,0.01,VWS V14.01,2013-05-30 18:36:00,
2013-05-30 11:41:00,56.7,45.5,30.02,WNW,287,0.0,0.0,66,0.00,,BKN040,0.01,VWS V14.01,2013-05-30 18:41:00,
2013-05-30 11:46:00,57.3,46.0,30.02,WNW,287,0.0,0.0,66,0.00,,BKN040,0.01,VWS V14.01,2013-05-30 18:46:00,
2013-05-30 11:51:00,57.6,46.3,30.02,WNW,287,0.0,5.0,66,0.00,,BKN040,0.01,VWS V14.01,2013-05-30 18:51:00,
2013-05-30 11:56:00,58.6,47.3,30.02,NW,311,0.0,0.0,66,0.00,,BKN040,0.01,VWS V14.01,2013-05-30 18:56:00,
2013-05-30 12:01:00,59.0,47.7,30.02,NW,309,0.0,0.0,66,0.00,,BKN040,0.01,VWS V14.01,2013-05-30 19:01:00,
2013-05-30 12:06:00,59.3,48.0,30.01,West,280,0.0,0.0,66,0.00,,BKN043,0.01,VWS V14.01,2013-05-30 19:06:00,
2013-05-30 12:11:00,59.3,48.0,30.01,North,0,0.0,0.0,66,0.00,,BKN043,0.01,VWS V14.01,2013-05-30 19:11:00,
2013-05-30 12:16:00,59.3,48.0,30.01,WNW,285,0.0,0.0,66,0.00,,BKN043,0.01,VWS V14.01,2013-05-30 19:16:00,
2013-05-30 12:21:00,58.3,47.0,30.01,NW,308,0.0,0.0,66,0.00,,BKN043,0.01,VWS V14.01,2013-05-30 19:21:00,
2013-05-30 12:26:00,57.9,45.0,30.01,NW,308,0.0,0.0,62,0.00,,BKN043,0.01,VWS V14.01,2013-05-30 19:26:00,
2013-05-30 12:31:00,57.6,44.7,30.01,South,171,0.0,0.0,62,0.00,,BKN043,0.01,VWS V14.01,2013-05-30 19:31:00,
2013-05-30 12:36:00,56.7,43.8,30.02,South,171,0.0,0.0,62,0.06,,BKN043,0.07,VWS V14.01,2013-05-30 19:36:00,
2013-05-30 12:42:00,56.3,43.5,30.02,South,171,0.0,0.0,62,0.06,,BKN043,0.07,VWS V14.01,2013-05-30 19:42:00,
2013-05-30 12:47:00,54.9,42.1,30.02,South,171,0.0,0.0,62,0.07,,BKN043,0.08,VWS V14.01,2013-05-30 19:47:00,
2013-05-30 12:52:00,53.6,40.9,30.02,South,171,0.0,0.0,62,0.08,,BKN043,0.09,VWS V14.01,2013-05-30 19:52:00,
2013-05-30 12:57:00,53.3,40.6,30.02,South,171,0.0,0.0,62,0.09,,BKN043,0.10,VWS V14.01,2013-05-30 19:57:00,
2013-05-30 13:02:00,53.0,40.3,30.02,South,171,0.0,0.0,62,0.09,,BKN090,0.10,VWS V14.01,2013-05-30 20:02:00,
2013-05-30 13:07:00,53.0,40.3,30.02,South,171,0.0,0.0,62,0.09,,BKN090,0.10,VWS V14.01,2013-05-30 20:07:00,
2013-05-30 13:12:00,53.5,40.8,30.02,South,171,0.0,0.0,62,0.09,,BKN090,0.10,VWS V14.01,2013-05-30 20:12:00,
2013-05-30 13:17:00,53.5,40.8,30.02,South,171,0.0,0.0,62,0.09,,BKN090,0.10,VWS V14.01,2013-05-30 20:17:00,
2013-05-30 13:23:00,54.6,41.9,30.02,South,171,0.0,0.0,62,0.09,,BKN090,0.10,VWS V14.01,2013-05-30 20:23:00,
2013-05-30 13:28:00,55.4,42.6,30.02,South,171,0.0,0.0,62,0.09,,BKN090,0.10,VWS V14.01,2013-05-30 20:28:00,
2013-05-30 13:33:00,55.7,42.9,30.02,South,171,0.0,0.0,62,0.09,,BKN090,0.10,VWS V14.01,2013-05-30 20:33:00,
2013-05-30 13:38:00,55.1,42.3,30.02,South,171,3.0,3.0,62,0.03,,BKN090,0.10,VWS V14.01,2013-05-30 20:38:00,
2013-05-30 13:43:00,54.9,42.1,30.02,ESE,103,0.0,0.0,62,0.03,,BKN090,0.10,VWS V14.01,2013-05-30 20:43:00,
2013-05-30 13:48:00,54.9,42.1,30.02,East,88,0.0,0.0,62,0.02,,BKN090,0.10,VWS V14.01,2013-05-30 20:48:00,
2013-05-30 13:53:00,54.9,42.1,30.02,East,88,1.0,1.0,62,0.01,,BKN090,0.10,VWS V14.01,2013-05-30 20:53:00,
2013-05-30 13:58:00,55.1,50.0,30.02,East,88,0.0,0.0,83,0.00,,BKN090,0.10,VWS V14.01,2013-05-30 20:58:00,
2013-05-30 14:03:00,54.9,49.8,30.02,East,88,0.0,0.0,83,0.00,,OVC070,0.10,VWS V14.01,2013-05-30 21:03:00,
2013-05-30 14:08:00,54.9,49.8,30.02,East,88,0.0,0.0,83,0.00,,OVC070,0.10,VWS V14.01,2013-05-30 21:08:00,
2013-05-30 14:13:00,54.9,49.8,30.02,East,88,0.0,0.0,83,0.00,,OVC070,0.10,VWS V14.01,2013-05-30 21:13:00,
2013-05-30 14:18:00,54.9,49.8,30.02,East,88,0.0,0.0,83,0.00,,OVC070,0.10,VWS V14.01,2013-05-30 21:18:00,
2013-05-30 14:23:00,54.9,49.8,30.02,East,88,0.0,0.0,83,0.00,,OVC070,0.10,VWS V14.01,2013-05-30 21:23:00,
2013-05-30 14:29:00,54.9,49.8,30.02,East,88,0.0,0.0,83,0.00,,OVC070,0.10,VWS V14.01,2013-05-30 21:29:00,
2013-05-30 14:34:00,54.8,49.4,30.03,East,88,0.0,0.0,82,0.00,,OVC070,0.10,VWS V14.01,2013-05-30 21:34:00,
2013-05-30 14:39:00,54.8,49.4,30.03,East,88,0.0,0.0,82,0.00,,OVC070,0.10,VWS V14.01,2013-05-30 21:39:00,
2013-05-30 14:44:00,54.8,49.1,30.03,East,88,0.0,0.0,81,0.00,,OVC070,0.10,VWS V14.01,2013-05-30 21:44:00,
2013-05-30 14:49:00,54.5,48.8,30.03,East,88,0.0,0.0,81,0.00,,OVC070,0.10,VWS V14.01,2013-05-30 21:49:00,
2013-05-30 14:54:00,54.5,48.8,30.03,East,88,0.0,0.0,81,0.00,,OVC070,0.10,VWS V14.01,2013-05-30 21:54:00,
2013-05-30 14:59:00,54.3,48.6,30.03,East,88,0.0,0.0,81,0.00,,OVC070,0.10,VWS V14.01,2013-05-30 21:59:00,
2013-05-30 15:04:00,54.3,48.6,30.03,East,88,0.0,0.0,81,0.00,,BKN080,0.10,VWS V14.01,2013-05-30 22:04:00,
2013-05-30 15:09:00,54.5,48.8,30.03,East,88,0.0,0.0,81,0.00,,BKN080,0.10,VWS V14.01,2013-05-30 22:09:00,
2013-05-30 15:14:00,54.5,47.5,30.03,East,88,0.0,0.0,77,0.00,,BKN080,0.10,VWS V14.01,2013-05-30 22:14:00,
2013-05-30 15:19:00,54.8,47.7,30.02,ESE,117,0.0,0.0,77,0.00,,BKN080,0.10,VWS V14.01,2013-05-30 22:19:00,
2013-05-30 15:24:00,55.2,48.1,30.02,ESE,117,0.0,0.0,77,0.00,,BKN080,0.10,VWS V14.01,2013-05-30 22:24:00,
2013-05-30 15:29:00,55.5,47.0,30.02,ESE,117,0.0,0.0,73,0.00,,BKN080,0.10,VWS V14.01,2013-05-30 22:29:00,
2013-05-30 15:34:00,55.5,48.1,30.02,ESE,117,0.0,0.0,76,0.00,,BKN080,0.10,VWS V14.01,2013-05-30 22:34:00,
2013-05-30 15:40:00,55.7,48.3,30.02,ESE,117,0.0,0.0,76,0.00,,BKN080,0.10,VWS V14.01,2013-05-30 22:40:00,
2013-05-30 15:45:00,55.7,48.3,30.02,North,357,0.0,0.0,76,0.00,,BKN080,0.10,VWS V14.01,2013-05-30 22:45:00,
2013-05-30 15:50:00,55.5,48.1,30.02,ESE,117,0.0,0.0,76,0.00,,BKN080,0.10,VWS V14.01,2013-05-30 22:50:00,
2013-05-30 15:55:00,55.5,48.1,30.02,ESE,117,0.0,0.0,76,0.00,,BKN080,0.10,VWS V14.01,2013-05-30 22:55:00,
2013-05-30 16:00:00,55.5,48.1,30.02,ESE,117,0.0,0.0,76,0.00,,BKN080,0.10,VWS V14.01,2013-05-30 23:00:00,
2013-05-30 16:05:00,55.4,48.0,30.02,East,96,0.0,0.0,76,0.00,,BKN070,0.10,VWS V14.01,2013-05-30 23:05:00,
2013-05-30 16:10:00,55.4,48.0,30.02,East,93,0.0,0.0,76,0.00,,BKN070,0.10,VWS V14.01,2013-05-30 23:10:00,
2013-05-30 16:15:00,55.4,48.0,30.02,East,93,0.0,0.0,76,0.00,,BKN070,0.10,VWS V14.01,2013-05-30 23:15:00,
2013-05-30 16:20:00,55.7,48.3,30.02,East,93,0.0,0.0,76,0.00,,BKN070,0.10,VWS V14.01,2013-05-30 23:20:00,
2013-05-30 16:25:00,56.3,48.8,30.02,East,93,0.0,0.0,76,0.00,,BKN070,0.10,VWS V14.01,2013-05-30 23:25:00,
2013-05-30 16:30:00,57.7,50.2,30.02,East,90,0.0,0.0,76,0.00,,BKN070,0.10,VWS V14.01,2013-05-30 23:30:00,
2013-05-30 16:36:00,59.0,51.5,30.02,ENE,73,0.0,0.0,76,0.00,,BKN070,0.10,VWS V14.01,2013-05-30 23:36:00,
2013-05-30 16:41:00,60.5,52.9,30.02,ESE,104,0.0,0.0,76,0.00,,BKN070,0.10,VWS V14.01,2013-05-30 23:41:00,
2013-05-30 16:46:00,60.5,52.9,30.02,ESE,104,0.0,0.0,76,0.00,,BKN070,0.10,VWS V14.01,2013-05-30 23:46:00,
2013-05-30 16:51:00,62.3,54.7,30.02,ESE,104,0.0,0.0,76,0.00,,BKN070,0.10,VWS V14.01,2013-05-30 23:51:00,
2013-05-30 16:56:00,62.6,54.9,30.02,ESE,104,0.0,0.0,76,0.00,,BKN070,0.10,VWS V14.01,2013-05-30 23:56:00,
2013-05-30 17:01:00,61.4,53.8,30.02,West,270,0.0,0.0,76,0.00,,BKN085,0.10,VWS V14.01,2013-05-31 00:01:00,
2013-05-30 17:06:00,60.8,53.2,30.02,West,272,0.0,1.0,76,0.00,,BKN085,0.10,VWS V14.01,2013-05-31 00:06:00,
2013-05-30 17:11:00,60.2,52.6,30.02,West,272,0.0,0.0,76,0.00,,BKN085,0.10,VWS V14.01,2013-05-31 00:11:00,
2013-05-30 17:16:00,60.2,52.6,30.02,West,272,0.0,0.0,76,0.00,,BKN085,0.10,VWS V14.01,2013-05-31 00:16:00,
2013-05-30 17:21:00,59.7,52.1,30.02,West,272,0.0,0.0,76,0.00,,BKN085,0.10,VWS V14.01,2013-05-31 00:21:00,
2013-05-30 17:27:00,59.7,52.1,30.02,West,272,0.0,0.0,76,0.00,,BKN085,0.10,VWS V14.01,2013-05-31 00:27:00,
2013-05-30 17:32:00,59.4,41.8,30.02,NE,35,0.0,0.0,52,0.00,,BKN085,0.10,VWS V14.01,2013-05-31 00:32:00,
2013-05-30 17:37:00,59.3,43.2,30.02,NW,306,0.0,0.0,55,0.00,,BKN085,0.10,VWS V14.01,2013-05-31 00:37:00,
2013-05-30 17:42:00,59.1,43.0,30.02,SSE,158,0.0,0.0,55,0.00,,BKN085,0.10,VWS V14.01,2013-05-31 00:42:00,
2013-05-30 17:47:00,59.1,43.0,30.02,SSE,158,0.0,0.0,55,0.00,,BKN085,0.10,VWS V14.01,2013-05-31 00:47:00,
2013-05-30 17:52:00,59.0,42.9,30.02,SSE,158,0.0,0.0,55,0.00,,BKN085,0.10,VWS V14.01,2013-05-31 00:52:00,
2013-05-30 17:57:00,58.8,41.7,30.02,SSE,158,0.0,0.0,53,0.00,,BKN085,0.10,VWS V14.01,2013-05-31 00:57:00,
2013-05-30 18:03:00,58.6,41.0,30.02,SSE,158,0.0,0.0,52,0.00,,BKN095,0.10,VWS V14.01,2013-05-31 01:03:00,
2013-05-30 18:08:00,58.6,41.0,30.02,WSW,256,0.0,0.0,52,0.00,,BKN095,0.10,VWS V14.01,2013-05-31 01:08:00,
2013-05-30 18:13:00,58.8,41.2,30.02,West,267,0.0,0.0,52,0.00,,BKN095,0.10,VWS V14.01,2013-05-31 01:13:00,
2013-05-30 18:18:00,58.8,41.2,30.03,West,265,0.0,0.0,52,0.00,,BKN095,0.10,VWS V14.01,2013-05-31 01:18:00,
2013-05-30 18:23:00,58.8,41.2,30.03,WSW,241,0.0,0.0,52,0.00,,BKN095,0.10,VWS V14.01,2013-05-31 01:23:00,
2013-05-30 18:28:00,58.8,41.2,30.03,WSW,248,0.0,0.0,52,0.00,,BKN095,0.10,VWS V14.01,2013-05-31 01:28:00,
2013-05-30 18:33:00,58.8,43.2,30.03,WSW,248,0.0,0.0,56,0.00,,BKN095,0.10,VWS V14.01,2013-05-31 01:33:00,
2013-05-30 18:38:00,58.6,43.4,30.03,WSW,244,0.0,2.0,57,0.00,,BKN095,0.10,VWS V14.01,2013-05-31 01:38:00,
2013-05-30 18:44:00,58.6,43.4,30.03,WSW,244,0.0,0.0,57,0.00,,BKN095,0.10,VWS V14.01,2013-05-31 01:44:00,
2013-05-30 18:49:00,58.6,43.4,30.03,WSW,244,0.0,0.0,57,0.00,,BKN095,0.10,VWS V14.01,2013-05-31 01:49:00,
2013-05-30 18:54:00,58.6,43.4,30.03,WSW,244,0.0,0.0,57,0.00,,BKN095,0.10,VWS V14.01,2013-05-31 01:54:00,
2013-05-30 18:59:00,58.2,43.1,30.03,WSW,244,0.0,0.0,57,0.00,,BKN095,0.10,VWS V14.01,2013-05-31 01:59:00,
2013-05-30 19:04:00,57.6,42.5,30.03,WSW,244,0.0,0.0,57,0.00,,BKN095,0.10,VWS V14.01,2013-05-31 02:04:00,
2013-05-30 19:09:00,57.5,42.4,30.03,WSW,244,0.0,0.0,57,0.00,,BKN095,0.10,VWS V14.01,2013-05-31 02:09:00,
2013-05-30 19:14:00,57.5,43.7,30.03,WSW,244,0.0,0.0,60,0.00,,BKN095,0.10,VWS V14.01,2013-05-31 02:14:00,
2013-05-30 19:19:00,57.5,42.4,30.03,SW,226,0.0,0.0,57,0.00,,BKN095,0.10,VWS V14.01,2013-05-31 02:19:00,
2013-05-30 19:24:00,57.6,42.5,30.03,SW,216,0.0,0.0,57,0.00,,BKN095,0.10,VWS V14.01,2013-05-31 02:24:00,
2013-05-30 19:29:00,57.6,42.5,30.03,SSW,199,0.0,0.0,57,0.00,,BKN095,0.10,VWS V14.01,2013-05-31 02:29:00,
2013-05-30 19:34:00,57.6,42.5,30.04,SSW,199,0.0,0.0,57,0.00,,BKN095,0.10,VWS V14.01,2013-05-31 02:34:00,
2013-05-30 19:40:00,57.6,42.5,30.04,SSE,165,0.0,0.0,57,0.00,,BKN095,0.10,VWS V14.01,2013-05-31 02:40:00,
2013-05-30 19:45:00,57.6,42.5,30.04,SSE,165,0.0,0.0,57,0.00,,BKN095,0.10,VWS V14.01,2013-05-31 02:45:00,
2013-05-30 19:50:00,57.6,42.5,30.04,SSE,165,0.0,0.0,57,0.00,,BKN095,0.10,VWS V14.01,2013-05-31 02:50:00,
2013-05-30 19:55:00,57.5,43.7,30.04,SSE,165,0.0,0.0,60,0.00,,BKN095,0.10,VWS V14.01,2013-05-31 02:55:00,
2013-05-30 20:00:00,57.5,43.7,30.04,SSE,165,0.0,0.0,60,0.00,,BKN095,0.10,VWS V14.01,2013-05-31 03:00:00,
2013-05-30 20:05:00,57.0,43.3,30.04,SSE,165,0.0,0.0,60,0.00,,SCT100,0.10,VWS V14.01,2013-05-31 03:05:00,
2013-05-30 20:10:00,56.9,43.2,30.04,SSE,165,0.0,0.0,60,0.00,,SCT100,0.10,VWS V14.01,2013-05-31 03:10:00,
2013-05-30 20:15:00,56.4,42.7,30.04,SSE,165,0.0,0.0,60,0.00,,SCT100,0.10,VWS V14.01,2013-05-31 03:15:00,
2013-05-30 20:20:00,56.1,42.4,30.05,SSE,165,0.0,0.0,60,0.00,,SCT100,0.10,VWS V14.01,2013-05-31 03:20:00,
2013-05-30 20:25:00,55.8,42.1,30.05,SSE,165,0.0,0.0,60,0.00,,SCT100,0.10,VWS V14.01,2013-05-31 03:25:00,
2013-05-30 20:31:00,55.5,41.9,30.05,SSE,165,0.0,0.0,60,0.00,,SCT100,0.10,VWS V14.01,2013-05-31 03:31:00,
2013-05-30 20:36:00,55.4,41.8,30.05,SSE,165,0.0,0.0,60,0.00,,SCT100,0.10,VWS V14.01,2013-05-31 03:36:00,
2013-05-30 20:41:00,55.1,41.5,30.05,SSE,165,0.0,0.0,60,0.00,,SCT100,0.10,VWS V14.01,2013-05-31 03:41:00,
2013-05-30 20:46:00,54.6,41.0,30.05,SSE,165,0.0,0.0,60,0.00,,SCT100,0.10,VWS V14.01,2013-05-31 03:46:00,
2013-05-30 20:51:00,54.2,40.6,30.05,SSE,165,0.0,0.0,60,0.00,,SCT100,0.10,VWS V14.01,2013-05-31 03:51:00,
2013-05-30 20:56:00,53.9,40.3,30.05,SSE,165,0.0,0.0,60,0.00,,SCT100,0.10,VWS V14.01,2013-05-31 03:56:00,
2013-05-30 21:01:00,53.5,40.0,30.05,SSE,165,0.0,0.0,60,0.00,,CLR,0.10,VWS V14.01,2013-05-31 04:01:00,
2013-05-30 21:02:00,53.5,40.0,30.06,SSE,165,0.0,0.0,60,0.00,,CLR,0.10,VWS V14.01,2013-05-31 04:02:00,
2013-05-30 21:07:00,53.2,39.7,30.06,SSE,165,0.0,0.0,60,0.00,,CLR,0.10,VWS V14.01,2013-05-31 04:07:00,
2013-05-30 21:13:00,53.2,39.7,30.06,SSE,165,0.0,0.0,60,0.00,,CLR,0.10,VWS V14.01,2013-05-31 04:13:00,
2013-05-30 21:18:00,52.4,43.7,30.06,SSE,165,0.0,0.0,72,0.00,,CLR,0.10,VWS V14.01,2013-05-31 04:18:00,
2013-05-30 21:23:00,51.8,43.1,30.06,SSE,165,0.0,0.0,72,0.00,,CLR,0.10,VWS V14.01,2013-05-31 04:23:00,
2013-05-30 21:28:00,51.5,42.8,30.06,SSE,165,0.0,0.0,72,0.00,,CLR,0.10,VWS V14.01,2013-05-31 04:28:00,
2013-05-30 21:33:00,51.2,42.5,30.07,SSE,165,0.0,0.0,72,0.00,,CLR,0.10,VWS V14.01,2013-05-31 04:33:00,
2013-05-30 21:38:00,50.9,42.2,30.07,SSE,165,0.0,0.0,72,0.00,,CLR,0.10,VWS V14.01,2013-05-31 04:38:00,
2013-05-30 21:43:00,50.9,42.2,30.07,SSE,165,0.0,0.0,72,0.00,,CLR,0.10,VWS V14.01,2013-05-31 04:43:00,
2013-05-30 21:48:00,50.5,41.8,30.07,SSE,165,0.0,0.0,72,0.00,,CLR,0.10,VWS V14.01,2013-05-31 04:48:00,
2013-05-30 21:53:00,50.4,41.7,30.07,SSE,165,0.0,0.0,72,0.00,,CLR,0.10,VWS V14.01,2013-05-31 04:53:00,
2013-05-30 21:58:00,50.1,41.4,30.07,SSE,165,0.0,0.0,72,0.00,,CLR,0.10,VWS V14.01,2013-05-31 04:58:00,
2013-05-30 22:03:00,50.1,41.4,30.08,SSE,165,0.0,0.0,72,0.00,,CLR,0.10,VWS V14.01,2013-05-31 05:03:00,
2013-05-30 22:09:00,49.8,41.2,30.08,SSE,165,0.0,0.0,72,0.00,,CLR,0.10,VWS V14.01,2013-05-31 05:09:00,
2013-05-30 22:14:00,49.8,41.2,30.08,SSE,165,0.0,0.0,72,0.00,,CLR,0.10,VWS V14.01,2013-05-31 05:14:00,
2013-05-30 22:19:00,49.2,40.6,30.08,SSE,165,0.0,0.0,72,0.00,,CLR,0.10,VWS V14.01,2013-05-31 05:19:00,
2013-05-30 22:24:00,49.0,40.4,30.08,SSE,165,0.0,0.0,72,0.00,,CLR,0.10,VWS V14.01,2013-05-31 05:24:00,
2013-05-30 22:29:00,48.3,41.8,30.08,SSE,165,0.0,0.0,78,0.00,,CLR,0.10,VWS V14.01,2013-05-31 05:29:00,
2013-05-30 22:34:00,48.0,41.8,30.08,SSE,165,0.0,0.0,79,0.00,,CLR,0.10,VWS V14.01,2013-05-31 05:34:00,
2013-05-30 22:39:00,47.8,41.6,30.08,SSE,165,0.0,0.0,79,0.00,,CLR,0.10,VWS V14.01,2013-05-31 05:39:00,
2013-05-30 22:44:00,47.5,41.7,30.08,SSE,165,0.0,0.0,80,0.00,,CLR,0.10,VWS V14.01,2013-05-31 05:44:00,
2013-05-30 22:49:00,47.1,41.3,30.09,SSE,165,0.0,0.0,80,0.00,,CLR,0.10,VWS V14.01,2013-05-31 05:49:00,
2013-05-30 22:54:00,46.8,41.3,30.09,SSE,165,0.0,0.0,81,0.00,,CLR,0.10,VWS V14.01,2013-05-31 05:54:00,
2013-05-30 22:59:00,46.5,41.0,30.09,SSE,165,0.0,0.0,81,0.00,,CLR,0.10,VWS V14.01,2013-05-31 05:59:00,
2013-05-30 23:04:00,46.2,40.7,30.09,SSE,165,0.0,0.0,81,0.00,,CLR,0.10,VWS V14.01,2013-05-31 06:04:00,
2013-05-30 23:09:00,46.1,40.6,30.09,SSE,165,0.0,0.0,81,0.00,,CLR,0.10,VWS V14.01,2013-05-31 06:09:00,
2013-05-30 23:14:00,45.9,40.4,30.09,SSE,165,0.0,0.0,81,0.00,,CLR,0.10,VWS V14.01,2013-05-31 06:14:00,
2013-05-30 23:19:00,45.6,40.1,30.09,SSE,165,0.0,0.0,81,0.00,,CLR,0.10,VWS V14.01,2013-05-31 06:19:00,
2013-05-30 23:24:00,45.5,41.9,30.09,SSE,165,0.0,0.0,87,0.00,,CLR,0.10,VWS V14.01,2013-05-31 06:24:00,
2013-05-30 23:29:00,45.3,41.7,30.09,SSE,165,0.0,0.0,87,0.00,,CLR,0.10,VWS V14.01,2013-05-31 06:29:00,
2013-05-30 23:35:00,45.3,41.7,30.10,SSE,165,0.0,0.0,87,0.00,,CLR,0.10,VWS V14.01,2013-05-31 06:35:00,
2013-05-30 23:40:00,45.3,41.7,30.10,SSE,165,0.0,0.0,87,0.00,,CLR,0.10,VWS V14.01,2013-05-31 06:40:00,
2013-05-30 23:45:00,44.6,41.0,30.10,SSE,165,0.0,0.0,87,0.00,,CLR,0.10,VWS V14.01,2013-05-31 06:45:00,
2013-05-30 23:50:00,44.6,41.6,30.10,SSE,165,0.0,0.0,89,0.00,,CLR,0.10,VWS V14.01,2013-05-31 06:50:00,
2013-05-30 23:55:00,44.6,41.6,30.10,SSE,165,0.0,0.0,89,0.00,,CLR,0.10,VWS V14.01,2013-05-31 06:55:00,